createdAt,value
2022-08-27T00:00:48.420Z,20.10
2022-08-27T00:03:15.930Z,20.10
2022-08-27T00:05:43.776Z,20.10
2022-08-27T00:08:12.865Z,20.10
2022-08-27T00:10:40.941Z,20.10
2022-08-27T00:13:08.073Z,20.10
2022-08-27T00:15:38.194Z,20.10
2022-08-27T00:18:05.766Z,20.10
2022-08-27T00:20:33.498Z,20.10
2022-08-27T00:23:03.662Z,20.00
2022-08-27T00:25:31.705Z,20.00
2022-08-27T00:27:58.716Z,20.00
2022-08-27T00:30:26.060Z,20.00
2022-08-27T00:32:53.395Z,20.00
2022-08-27T00:35:20.648Z,20.00
2022-08-27T00:37:47.624Z,20.00
2022-08-27T00:40:18.978Z,20.00
2022-08-27T00:42:49.177Z,20.00
2022-08-27T00:45:19.697Z,20.00
2022-08-27T00:47:50.883Z,20.00
2022-08-27T00:50:28.547Z,20.00
2022-08-27T00:53:00.086Z,19.90
2022-08-27T00:55:35.785Z,19.90
2022-08-27T00:58:26.541Z,19.90
2022-08-27T01:00:54.425Z,19.90
2022-08-27T01:03:21.868Z,19.90
2022-08-27T01:05:50.674Z,19.90
2022-08-27T01:08:23.286Z,19.90
2022-08-27T01:10:51.339Z,19.80
2022-08-27T01:13:22.714Z,19.80
2022-08-27T01:16:11.628Z,19.80
2022-08-27T01:18:39.601Z,19.90
2022-08-27T01:21:42.851Z,19.90
2022-08-27T01:24:36.059Z,19.80
2022-08-27T01:27:04.268Z,19.80
2022-08-27T01:29:33.791Z,19.80
2022-08-27T01:32:10.055Z,19.80
2022-08-27T01:34:38.033Z,19.80
2022-08-27T01:37:06.688Z,19.80
2022-08-27T01:39:35.864Z,19.80
2022-08-27T01:42:19.533Z,19.80
2022-08-27T01:44:54.569Z,19.80
2022-08-27T01:47:30.293Z,19.80
2022-08-27T01:49:59.387Z,19.80
2022-08-27T01:52:29.096Z,19.80
2022-08-27T01:54:56.250Z,19.70
2022-08-27T01:57:26.047Z,19.80
2022-08-27T01:59:54.871Z,19.70
2022-08-27T02:02:22.658Z,19.80
2022-08-27T02:04:51.071Z,19.80
2022-08-27T02:07:18.466Z,19.80
2022-08-27T02:09:45.663Z,19.80
2022-08-27T02:12:12.540Z,19.80
2022-08-27T02:14:39.542Z,19.80
2022-08-27T02:17:06.454Z,19.80
2022-08-27T02:19:33.500Z,19.80
2022-08-27T02:22:00.861Z,19.80
2022-08-27T02:24:29.059Z,19.70
2022-08-27T02:26:57.216Z,19.70
2022-08-27T02:29:25.058Z,19.70
2022-08-27T02:31:52.213Z,19.70
2022-08-27T02:34:19.258Z,19.70
2022-08-27T02:36:46.816Z,19.70
2022-08-27T02:39:14.098Z,19.70
2022-08-27T02:41:41.109Z,19.70
2022-08-27T02:44:10.235Z,19.70
2022-08-27T02:46:39.292Z,19.70
2022-08-27T02:49:06.541Z,19.70
2022-08-27T02:51:33.748Z,19.70
2022-08-27T02:54:02.300Z,19.70
2022-08-27T02:56:30.173Z,19.70
2022-08-27T02:58:57.196Z,19.70
2022-08-27T03:01:24.191Z,19.70
2022-08-27T03:03:51.626Z,19.70
2022-08-27T03:06:18.508Z,19.70
2022-08-27T03:08:53.065Z,19.70
2022-08-27T03:11:23.106Z,19.60
2022-08-27T03:13:51.018Z,19.60
2022-08-27T03:16:18.487Z,19.60
2022-08-27T03:18:45.586Z,19.60
2022-08-27T03:21:24.877Z,19.60
2022-08-27T03:23:52.562Z,19.60
2022-08-27T03:26:20.188Z,19.60
2022-08-27T03:28:47.470Z,19.60
2022-08-27T03:31:20.549Z,19.60
2022-08-27T03:33:47.605Z,19.60
2022-08-27T03:36:14.679Z,19.60
2022-08-27T03:38:41.668Z,19.60
2022-08-27T03:41:08.855Z,19.60
2022-08-27T03:43:36.013Z,19.60
2022-08-27T03:46:03.014Z,19.60
2022-08-27T03:48:32.085Z,19.60
2022-08-27T03:50:59.348Z,19.60
2022-08-27T03:53:26.623Z,19.50
2022-08-27T03:55:53.588Z,19.50
2022-08-27T03:58:20.498Z,19.50
2022-08-27T04:00:47.434Z,19.50
2022-08-27T04:03:14.949Z,19.50
2022-08-27T04:05:44.704Z,19.50
2022-08-27T04:08:13.387Z,19.50
2022-08-27T04:10:41.514Z,19.50
2022-08-27T04:13:08.649Z,19.50
2022-08-27T04:15:39.535Z,19.50
2022-08-27T04:18:08.341Z,19.40
2022-08-27T04:20:36.288Z,19.40
2022-08-27T04:23:04.416Z,19.30
2022-08-27T04:25:32.289Z,19.40
2022-08-27T04:27:59.490Z,19.40
2022-08-27T04:30:26.791Z,19.40
2022-08-27T04:32:53.832Z,19.40
2022-08-27T04:35:20.713Z,19.40
2022-08-27T04:37:47.730Z,19.40
2022-08-27T04:40:14.752Z,19.40
2022-08-27T04:42:42.352Z,19.40
2022-08-27T04:45:10.153Z,19.30
2022-08-27T04:47:37.344Z,19.40
2022-08-27T04:50:05.839Z,19.40
2022-08-27T04:52:32.997Z,19.30
2022-08-27T04:55:03.360Z,19.30
2022-08-27T04:57:30.254Z,19.30
2022-08-27T04:59:58.007Z,19.30
2022-08-27T05:02:26.037Z,19.30
2022-08-27T05:04:53.170Z,19.30
2022-08-27T05:07:20.543Z,19.30
2022-08-27T05:09:47.536Z,19.30
2022-08-27T05:12:14.546Z,19.30
2022-08-27T05:14:41.526Z,19.30
2022-08-27T05:17:08.650Z,19.30
2022-08-27T05:19:35.627Z,19.20
2022-08-27T05:22:02.562Z,19.20
2022-08-27T05:24:29.522Z,19.20
2022-08-27T05:26:56.436Z,19.20
2022-08-27T05:29:24.305Z,19.20
2022-08-27T05:31:51.485Z,19.20
2022-08-27T05:34:25.469Z,19.20
2022-08-27T05:36:54.539Z,19.20
2022-08-27T05:39:21.698Z,19.10
2022-08-27T05:41:48.786Z,19.10
2022-08-27T05:44:40.512Z,19.10
2022-08-27T05:47:04.731Z,19.10
2022-08-27T05:49:31.910Z,19.10
2022-08-27T05:51:58.837Z,19.20
2022-08-27T05:54:25.742Z,19.10
2022-08-27T05:56:52.951Z,19.10
2022-08-27T05:59:39.345Z,19.10
2022-08-27T06:02:06.976Z,19.10
2022-08-27T06:04:34.404Z,19.10
2022-08-27T06:07:01.775Z,19.10
2022-08-27T06:09:29.534Z,19.10
2022-08-27T06:11:58.549Z,19.10
2022-08-27T06:14:26.298Z,19.10
2022-08-27T06:16:55.950Z,19.00
2022-08-27T06:19:23.414Z,19.00
2022-08-27T06:22:00.339Z,19.00
2022-08-27T06:24:36.628Z,19.10
2022-08-27T06:27:03.717Z,19.00
2022-08-27T06:29:30.702Z,19.00
2022-08-27T06:31:57.657Z,19.00
2022-08-27T06:34:24.755Z,19.00
2022-08-27T06:36:53.376Z,19.10
2022-08-27T06:39:35.666Z,19.00
2022-08-27T06:42:10.310Z,19.00
2022-08-27T06:44:43.852Z,19.00
2022-08-27T06:47:36.005Z,19.00
2022-08-27T06:50:49.670Z,19.00
2022-08-27T06:53:26.729Z,19.00
2022-08-27T06:55:53.812Z,19.00
2022-08-27T06:58:21.067Z,18.90
2022-08-27T07:00:49.104Z,18.90
2022-08-27T07:03:16.187Z,18.90
2022-08-27T07:05:43.088Z,18.90
2022-08-27T07:08:10.990Z,18.90
2022-08-27T07:10:38.291Z,18.80
2022-08-27T07:13:05.687Z,18.90
2022-08-27T07:15:33.532Z,18.90
2022-08-27T07:18:02.179Z,18.90
2022-08-27T07:20:33.650Z,18.90
2022-08-27T07:23:00.615Z,18.90
2022-08-27T07:25:27.608Z,18.80
2022-08-27T07:27:56.348Z,18.80
2022-08-27T07:30:23.435Z,18.80
2022-08-27T07:32:50.516Z,18.80
2022-08-27T07:35:17.490Z,18.80
2022-08-27T07:37:44.594Z,18.70
2022-08-27T07:40:14.271Z,18.80
2022-08-27T07:43:01.779Z,18.70
2022-08-27T07:45:30.595Z,18.70
2022-08-27T07:47:57.663Z,18.70
2022-08-27T07:50:24.764Z,18.80
2022-08-27T07:52:52.204Z,18.80
2022-08-27T07:55:19.631Z,18.80
2022-08-27T07:57:48.570Z,18.80
2022-08-27T08:00:16.192Z,18.70
2022-08-27T08:03:26.435Z,18.70
2022-08-27T08:05:54.242Z,18.70
2022-08-27T08:08:22.072Z,18.70
2022-08-27T08:10:53.895Z,18.80
2022-08-27T08:13:25.282Z,18.80
2022-08-27T08:15:52.885Z,18.80
2022-08-27T08:18:20.746Z,18.70
2022-08-27T08:21:08.270Z,18.80
2022-08-27T08:23:38.584Z,18.80
2022-08-27T08:26:07.128Z,18.80
2022-08-27T08:28:34.671Z,18.70
2022-08-27T08:31:02.111Z,18.80
2022-08-27T08:33:31.511Z,18.80
2022-08-27T08:36:13.703Z,18.80
2022-08-27T08:38:41.769Z,18.80
2022-08-27T08:41:34.956Z,18.80
2022-08-27T08:44:05.681Z,18.80
2022-08-27T08:46:39.858Z,18.80
2022-08-27T08:49:26.912Z,18.80
2022-08-27T08:51:57.484Z,18.80
2022-08-27T08:54:30.628Z,18.80
2022-08-27T08:57:18.791Z,18.80
2022-08-27T08:59:54.810Z,18.90
2022-08-27T09:02:21.775Z,18.90
2022-08-27T09:04:49.087Z,18.80
2022-08-27T09:07:45.001Z,18.90
2022-08-27T09:10:37.297Z,18.90
2022-08-27T09:13:09.125Z,18.90
2022-08-27T09:15:38.217Z,18.90
2022-08-27T09:18:07.066Z,18.90
2022-08-27T09:20:46.300Z,18.90
2022-08-27T09:23:28.955Z,18.90
2022-08-27T09:25:56.124Z,19.00
2022-08-27T09:28:46.450Z,19.00
2022-08-27T09:31:17.481Z,19.00
2022-08-27T09:33:56.843Z,19.00
2022-08-27T09:36:25.611Z,19.00
2022-08-27T09:38:58.912Z,19.00
2022-08-27T09:41:32.027Z,19.00
2022-08-27T09:44:15.276Z,19.00
2022-08-27T09:47:14.406Z,19.00
2022-08-27T09:49:42.097Z,19.00
2022-08-27T09:52:11.338Z,19.00
2022-08-27T09:54:44.298Z,19.00
2022-08-27T09:57:14.118Z,19.00
2022-08-27T09:59:51.464Z,19.00
2022-08-27T10:02:25.182Z,19.00
2022-08-27T10:04:54.637Z,19.00
2022-08-27T10:07:38.167Z,19.00
2022-08-27T10:10:40.724Z,19.00
2022-08-27T10:17:18.035Z,19.10
2022-08-27T10:19:58.041Z,19.10
2022-08-27T10:22:43.143Z,19.10
2022-08-27T10:25:28.353Z,19.10
2022-08-27T10:28:05.112Z,19.10
2022-08-27T10:30:54.812Z,19.10
2022-08-27T10:33:48.375Z,19.10
2022-08-27T10:36:21.750Z,19.20
2022-08-27T10:38:58.558Z,19.20
2022-08-27T10:41:32.799Z,19.20
2022-08-27T10:44:19.032Z,19.30
2022-08-27T10:46:53.291Z,19.30
2022-08-27T10:49:47.101Z,19.30
2022-08-27T10:52:40.505Z,19.30
2022-08-27T10:55:20.655Z,19.30
2022-08-27T10:58:00.658Z,19.30
2022-08-27T11:00:42.956Z,19.30
2022-08-27T11:03:13.766Z,19.40
2022-08-27T11:05:49.918Z,19.40
2022-08-27T11:08:35.035Z,19.30
2022-08-27T11:11:51.775Z,19.30
2022-08-27T11:14:05.368Z,19.40
2022-08-27T11:16:48.121Z,19.40
2022-08-27T11:19:18.139Z,19.40
2022-08-27T11:22:07.196Z,19.50
2022-08-27T11:25:02.866Z,19.50
2022-08-27T11:27:33.378Z,19.40
2022-08-27T11:30:04.799Z,19.50
2022-08-27T11:32:43.774Z,19.60
2022-08-27T11:35:21.130Z,19.60
2022-08-27T11:38:12.794Z,19.70
2022-08-27T11:41:31.319Z,19.70
2022-08-27T11:44:17.601Z,19.80
2022-08-27T11:46:45.946Z,19.80
2022-08-27T11:49:35.495Z,19.90
2022-08-27T11:52:07.337Z,19.90
2022-08-27T11:54:47.796Z,20.00
2022-08-27T11:57:26.790Z,20.00
2022-08-27T11:59:53.736Z,20.10
2022-08-27T12:02:27.760Z,20.10
2022-08-27T12:05:09.985Z,20.10
2022-08-27T12:07:39.959Z,20.10
2022-08-27T12:10:39.208Z,20.10
2022-08-27T12:13:41.664Z,20.20
2022-08-27T12:16:33.314Z,20.20
2022-08-27T12:19:08.874Z,20.30
2022-08-27T12:21:43.116Z,20.20
2022-08-27T12:24:13.211Z,20.30
2022-08-27T12:26:43.406Z,20.30
2022-08-27T12:29:24.707Z,20.30
2022-08-27T12:32:24.903Z,20.40
2022-08-27T12:35:05.776Z,20.40
2022-08-27T12:37:39.261Z,20.50
2022-08-27T12:40:28.924Z,20.50
2022-08-27T12:43:21.732Z,20.50
2022-08-27T12:45:50.107Z,20.60
2022-08-27T12:48:28.342Z,20.60
2022-08-27T12:51:00.661Z,20.70
2022-08-27T12:53:45.758Z,20.70
2022-08-27T12:56:51.547Z,20.70
2022-08-27T12:59:46.297Z,20.80
2022-08-27T13:02:34.727Z,20.80
2022-08-27T13:05:10.478Z,20.80
2022-08-27T13:07:46.252Z,20.80
2022-08-27T13:10:15.236Z,20.80
2022-08-27T13:12:43.180Z,20.80
2022-08-27T13:15:14.393Z,20.90
2022-08-27T13:17:46.505Z,20.90
2022-08-27T13:20:24.710Z,20.90
2022-08-27T13:22:53.836Z,21.00
2022-08-27T13:25:21.089Z,21.00
2022-08-27T13:28:07.930Z,20.90
2022-08-27T13:30:38.415Z,20.90
2022-08-27T13:33:07.608Z,20.90
2022-08-27T13:35:35.245Z,20.90
2022-08-27T13:38:03.984Z,21.00
2022-08-27T13:40:37.649Z,21.00
2022-08-27T13:43:09.460Z,21.00
2022-08-27T13:45:40.582Z,21.00
2022-08-27T13:48:10.423Z,21.10
2022-08-27T13:50:37.711Z,21.10
2022-08-27T13:53:29.100Z,21.10
2022-08-27T13:55:58.747Z,21.10
2022-08-27T13:58:31.651Z,21.10
2022-08-27T14:01:14.581Z,21.20
2022-08-27T14:03:49.548Z,21.20
2022-08-27T14:06:36.027Z,21.20
2022-08-27T14:09:30.187Z,21.20
2022-08-27T14:12:03.174Z,21.30
2022-08-27T14:14:31.423Z,21.20
2022-08-27T14:17:02.614Z,21.20
2022-08-27T14:19:36.923Z,21.20
2022-08-27T14:22:04.942Z,21.20
2022-08-27T14:24:33.110Z,21.20
2022-08-27T14:27:08.711Z,21.10
2022-08-27T14:29:37.687Z,21.20
2022-08-27T14:32:07.743Z,21.20
2022-08-27T14:34:36.529Z,21.20
2022-08-27T14:37:04.717Z,21.20
2022-08-27T14:39:32.175Z,21.20
2022-08-27T14:42:00.161Z,21.30
2022-08-27T14:44:27.548Z,21.30
2022-08-27T14:47:02.554Z,21.30
2022-08-27T14:49:37.230Z,21.30
2022-08-27T14:52:14.432Z,21.30
2022-08-27T14:54:51.619Z,21.30
2022-08-27T14:57:19.437Z,21.40
2022-08-27T14:59:46.490Z,21.30
2022-08-27T15:02:14.476Z,21.30
2022-08-27T15:04:42.340Z,21.30
2022-08-27T15:07:14.217Z,21.30
2022-08-27T15:09:41.380Z,21.30
2022-08-27T15:12:19.321Z,21.30
2022-08-27T15:14:54.123Z,21.30
2022-08-27T15:17:34.435Z,21.30
2022-08-27T15:20:07.261Z,21.20
2022-08-27T15:22:36.288Z,21.30
2022-08-27T15:25:05.813Z,21.20
2022-08-27T15:27:38.539Z,21.20
2022-08-27T15:30:13.018Z,21.20
2022-08-27T15:32:42.356Z,21.20
2022-08-27T15:35:13.924Z,21.20
2022-08-27T15:37:42.893Z,21.30
2022-08-27T15:40:11.553Z,21.20
2022-08-27T15:42:39.009Z,21.20
2022-08-27T15:45:07.469Z,21.10
2022-08-27T15:47:34.605Z,21.10
2022-08-27T15:50:01.654Z,21.10
2022-08-27T15:52:36.318Z,21.10
2022-08-27T15:55:19.923Z,21.10
2022-08-27T15:57:47.373Z,21.10
2022-08-27T16:00:16.455Z,21.10
2022-08-27T16:02:44.812Z,21.00
2022-08-27T16:05:14.011Z,21.00
2022-08-27T16:07:41.462Z,20.90
2022-08-27T16:10:09.878Z,20.90
2022-08-27T16:12:36.987Z,20.90
2022-08-27T16:15:05.789Z,20.90
2022-08-27T16:17:33.829Z,20.80
2022-08-27T16:20:00.688Z,20.80
2022-08-27T16:22:28.472Z,20.80
2022-08-27T16:24:55.512Z,20.80
2022-08-27T16:27:22.470Z,20.80
2022-08-27T16:29:49.516Z,20.70
2022-08-27T16:32:18.782Z,20.70
2022-08-27T16:34:47.562Z,20.70
2022-08-27T16:37:26.956Z,20.70
2022-08-27T16:39:53.879Z,20.60
2022-08-27T16:42:21.460Z,20.60
2022-08-27T16:44:48.786Z,20.60
2022-08-27T16:47:15.920Z,20.60
2022-08-27T16:50:01.291Z,20.50
2022-08-27T16:52:28.879Z,20.50
2022-08-27T16:54:56.868Z,20.50
2022-08-27T16:57:24.001Z,20.50
2022-08-27T16:59:51.282Z,20.50
2022-08-27T17:02:30.550Z,20.50
2022-08-27T17:05:12.339Z,20.40
2022-08-27T17:07:48.762Z,20.40
2022-08-27T17:10:20.148Z,20.30
2022-08-27T17:12:48.118Z,20.30
2022-08-27T17:15:18.287Z,20.30
2022-08-27T17:17:45.736Z,20.20
2022-08-27T17:20:15.067Z,20.20
2022-08-27T17:22:43.900Z,20.10
2022-08-27T17:25:13.850Z,20.00
2022-08-27T17:27:41.076Z,20.00
2022-08-27T17:30:09.295Z,20.00
2022-08-27T17:32:39.921Z,20.00
2022-08-27T17:35:08.126Z,20.00
2022-08-27T17:37:35.256Z,20.00
2022-08-27T17:40:02.300Z,19.90
2022-08-27T17:42:31.095Z,19.90
2022-08-27T17:44:58.984Z,19.90
2022-08-27T17:47:26.829Z,19.90
2022-08-27T17:49:54.033Z,19.80
2022-08-27T17:52:21.447Z,19.80
2022-08-27T17:54:56.592Z,19.80
2022-08-27T17:57:40.311Z,19.70
2022-08-27T18:00:10.980Z,19.70
2022-08-27T18:02:47.351Z,19.60
2022-08-27T18:05:15.387Z,19.60
2022-08-27T18:07:43.136Z,19.60
2022-08-27T18:10:12.438Z,19.60
2022-08-27T18:12:40.430Z,19.50
2022-08-27T18:15:21.173Z,19.50
2022-08-27T18:17:53.284Z,19.50
2022-08-27T18:20:22.597Z,19.40
2022-08-27T18:22:50.195Z,19.40
2022-08-27T18:25:24.562Z,19.40
2022-08-27T18:27:56.349Z,19.30
2022-08-27T18:30:26.514Z,19.30
2022-08-27T18:32:54.528Z,19.20
2022-08-27T18:35:44.026Z,19.20
2022-08-27T18:38:13.082Z,19.20
2022-08-27T18:40:49.425Z,19.10
2022-08-27T18:43:22.205Z,19.10
2022-08-27T18:45:57.639Z,19.00
2022-08-27T18:48:26.996Z,19.00
2022-08-27T18:51:02.657Z,19.00
2022-08-27T18:53:38.499Z,18.90
2022-08-27T18:56:11.697Z,18.90
2022-08-27T18:58:52.437Z,18.80
2022-08-27T19:01:27.136Z,18.80
2022-08-27T19:04:01.988Z,18.80
2022-08-27T19:06:31.208Z,18.80
2022-08-27T19:08:58.527Z,18.70
2022-08-27T19:11:31.576Z,18.70
2022-08-27T19:13:58.555Z,18.60
2022-08-27T19:16:44.105Z,18.60
2022-08-27T19:19:13.683Z,18.60
2022-08-27T19:21:41.138Z,18.60
2022-08-27T19:24:12.157Z,18.50
2022-08-27T19:26:39.712Z,18.50
2022-08-27T19:29:08.123Z,18.50
2022-08-27T19:31:37.030Z,18.50
2022-08-27T19:34:07.362Z,18.50
2022-08-27T19:36:39.957Z,18.40
2022-08-27T19:39:10.960Z,18.40
2022-08-27T19:41:44.416Z,18.30
2022-08-27T19:44:11.448Z,18.30
2022-08-27T19:46:39.633Z,18.30
2022-08-27T19:49:16.922Z,18.30
2022-08-27T19:52:06.182Z,18.20
2022-08-27T19:54:43.176Z,18.20
2022-08-27T19:57:19.368Z,18.20
2022-08-27T19:59:46.353Z,18.20
2022-08-27T20:02:13.337Z,18.10
2022-08-27T20:04:55.811Z,18.10
2022-08-27T20:07:27.256Z,18.10
2022-08-27T20:09:54.141Z,18.10
2022-08-27T20:12:34.737Z,18.00
2022-08-27T20:15:01.779Z,18.00
2022-08-27T20:17:29.310Z,18.00
2022-08-27T20:19:56.917Z,17.90
2022-08-27T20:22:23.919Z,17.90
2022-08-27T20:24:50.859Z,17.80
2022-08-27T20:27:17.829Z,17.80
2022-08-27T20:29:45.798Z,17.80
2022-08-27T20:32:13.727Z,17.80
2022-08-27T20:34:40.708Z,17.70
2022-08-27T20:37:08.336Z,17.70
2022-08-27T20:39:35.368Z,17.70
2022-08-27T20:42:02.394Z,17.60
2022-08-27T20:44:29.293Z,17.50
2022-08-27T20:46:59.938Z,17.50
2022-08-27T20:49:27.995Z,17.40
2022-08-27T20:52:03.312Z,17.40
2022-08-27T20:54:31.621Z,17.40
2022-08-27T20:56:58.792Z,17.40
2022-08-27T20:59:44.630Z,17.40
2022-08-27T21:02:13.441Z,17.40
2022-08-27T21:04:46.539Z,17.40
2022-08-27T21:07:15.060Z,17.40
2022-08-27T21:09:56.666Z,17.40
2022-08-27T21:12:29.291Z,17.40
2022-08-27T21:14:58.187Z,17.40
2022-08-27T21:17:28.125Z,17.30
2022-08-27T21:19:55.502Z,17.40
2022-08-27T21:22:23.653Z,17.30
2022-08-27T21:24:50.698Z,17.30
2022-08-27T21:27:18.865Z,17.30
2022-08-27T21:29:45.909Z,17.30
2022-08-27T21:32:13.920Z,17.30
2022-08-27T21:34:41.842Z,17.30
2022-08-27T21:37:09.359Z,17.20
2022-08-27T21:39:38.500Z,17.20
2022-08-27T21:42:05.575Z,17.20
2022-08-27T21:44:32.525Z,17.10
2022-08-27T21:47:00.729Z,17.20
2022-08-27T21:49:28.452Z,17.10
2022-08-27T21:51:55.373Z,17.10
2022-08-27T21:54:23.485Z,17.10
2022-08-27T21:56:53.144Z,17.10
2022-08-27T21:59:20.301Z,17.10
2022-08-27T22:01:47.903Z,17.10
2022-08-27T22:04:17.579Z,17.00
2022-08-27T22:06:44.426Z,17.10
2022-08-27T22:09:11.272Z,17.00
2022-08-27T22:11:41.621Z,17.00
2022-08-27T22:14:12.002Z,17.00
2022-08-27T22:16:39.345Z,17.00
2022-08-27T22:19:06.264Z,17.00
2022-08-27T22:21:44.928Z,17.00
2022-08-27T22:24:11.981Z,17.00
2022-08-27T22:26:38.974Z,17.00
2022-08-27T22:29:06.387Z,17.00
2022-08-27T22:34:44.988Z,16.90
2022-08-27T22:37:12.092Z,16.90
2022-08-27T22:39:39.290Z,16.90
2022-08-27T22:42:06.516Z,16.80
2022-08-27T22:44:33.877Z,16.80
2022-08-27T22:47:01.018Z,16.80
2022-08-27T22:49:28.000Z,16.80
2022-08-27T22:51:54.866Z,16.80
2022-08-27T22:54:22.032Z,16.80
2022-08-27T22:56:49.028Z,16.80
2022-08-27T22:59:15.971Z,16.70
2022-08-27T23:01:43.358Z,16.70
2022-08-27T23:04:10.441Z,16.70
2022-08-27T23:06:38.436Z,16.70
2022-08-27T23:09:05.541Z,16.70
2022-08-27T23:11:32.576Z,16.70
2022-08-27T23:14:00.483Z,16.70
2022-08-27T23:16:28.647Z,16.70
2022-08-27T23:18:55.557Z,16.70
2022-08-27T23:21:22.438Z,16.70
2022-08-27T23:23:49.921Z,16.70
2022-08-27T23:26:35.583Z,16.70
2022-08-27T23:29:02.567Z,16.60
2022-08-27T23:31:29.630Z,16.60
2022-08-27T23:33:57.574Z,16.60
2022-08-27T23:36:25.061Z,16.60
2022-08-27T23:38:52.081Z,16.60
2022-08-27T23:41:19.168Z,16.50
2022-08-27T23:43:46.204Z,16.50
2022-08-27T23:46:13.498Z,16.50
2022-08-27T23:48:40.750Z,16.50
2022-08-27T23:51:09.371Z,16.50
2022-08-27T23:53:37.564Z,16.40
2022-08-27T23:56:05.089Z,16.40
2022-08-27T23:58:32.736Z,16.40
